Time;durP1;ratioP1;P1;durP2;ratioP2;P2;SDS_P1;SDS_P2;PMS_P1;PMS_P2;Temp;Humidity;BMP_temperature;BMP_pressure;BME280_temperature;BME280_humidity;BME280_pressure;Samples;Min_cycle;Max_cycle;Signal;HPM_P1;HPM_P2
2022/06/14 00:03:21;;;;;;;12.83;12.43;;;23.60;59.50;;;;;;5091700;28;20811;-71
2022/06/14 00:05:49;;;;;;;12.20;11.90;;;23.50;59.50;;;;;;5091671;28;20521;-71
2022/06/14 00:08:18;;;;;;;11.73;11.43;;;23.50;59.50;;;;;;5091921;28;20555;-71
2022/06/14 00:10:45;;;;;;;12.10;11.80;;;23.50;59.60;;;;;;5091237;28;20494;-71
2022/06/14 00:13:12;;;;;;;12.93;12.43;;;23.50;59.60;;;;;;5091601;28;20538;-71
2022/06/14 00:15:40;;;;;;;11.40;11.00;;;23.50;59.60;;;;;;5091336;28;20990;-71
2022/06/14 00:18:06;;;;;;;13.97;13.50;;;23.50;59.60;;;;;;5091642;28;20949;-71
2022/06/14 00:20:34;;;;;;;11.93;11.63;;;23.50;59.60;;;;;;5091160;28;20565;-71
2022/06/14 00:23:02;;;;;;;11.90;11.60;;;23.50;59.60;;;;;;5091470;28;20453;-71
2022/06/14 00:25:34;;;;;;;12.00;11.70;;;23.50;59.60;;;;;;5091565;28;20877;-71
2022/06/14 00:28:01;;;;;;;12.30;12.00;;;23.50;59.70;;;;;;5091153;28;20470;-71
2022/06/14 00:30:30;;;;;;;11.60;11.30;;;23.50;59.70;;;;;;5091109;28;20469;-71
2022/06/14 00:32:57;;;;;;;12.03;11.70;;;23.50;60.40;;;;;;5091619;28;20492;-71
2022/06/14 00:35:24;;;;;;;12.30;11.80;;;23.50;59.80;;;;;;5091326;28;20442;-71
2022/06/14 00:37:51;;;;;;;14.27;13.83;;;23.50;59.70;;;;;;5095838;28;20984;-71
2022/06/14 00:40:22;;;;;;;12.20;11.80;;;23.50;59.80;;;;;;5095434;28;21006;-71
2022/06/14 00:42:49;;;;;;;13.00;12.60;;;23.40;59.70;;;;;;5095921;28;20918;-71
2022/06/14 00:45:54;;;;;;;12.50;12.10;;;23.40;59.80;;;;;;5095522;28;20525;-70
2022/06/14 00:48:25;;;;;;;12.60;12.30;;;23.40;59.80;;;;;;5095927;28;20896;-71
2022/06/14 00:51:00;;;;;;;12.30;12.00;;;23.40;59.90;;;;;;5095398;28;20533;-71
2022/06/14 00:53:31;;;;;;;11.90;11.60;;;23.40;59.90;;;;;;5095685;28;20452;-71
2022/06/14 00:56:04;;;;;;;12.10;11.63;;;23.40;60.70;;;;;;5095213;28;20813;-71
2022/06/14 00:58:36;;;;;;;12.13;11.73;;;23.40;60.00;;;;;;5095454;28;20482;-71
2022/06/14 01:01:07;;;;;;;12.77;12.30;;;23.40;59.90;;;;;;5094766;28;20565;-71
2022/06/14 01:03:39;;;;;;;12.60;12.30;;;23.40;60.00;;;;;;5095624;28;20474;-71
2022/06/14 01:06:10;;;;;;;11.87;11.57;;;23.40;60.80;;;;;;5095053;28;20442;-71
2022/06/14 01:08:42;;;;;;;12.40;12.10;;;23.40;60.20;;;;;;5095359;28;20526;-71
2022/06/14 01:11:14;;;;;;;12.63;12.23;;;23.40;60.20;;;;;;5095040;28;20519;-71
2022/06/14 01:13:42;;;;;;;13.57;12.93;;;23.40;60.20;;;;;;5095240;28;20483;-71
2022/06/14 01:16:11;;;;;;;11.70;11.40;;;23.40;60.20;;;;;;5094998;28;20443;-71
2022/06/14 01:18:40;;;;;;;12.30;12.00;;;23.30;60.10;;;;;;5095166;28;20931;-71
2022/06/14 01:21:07;;;;;;;13.33;12.83;;;23.30;60.30;;;;;;5094821;28;20478;-71
2022/06/14 01:23:35;;;;;;;11.90;11.60;;;23.30;60.20;;;;;;5095131;28;20828;-71
2022/06/14 01:26:14;;;;;;;12.47;11.97;;;23.30;60.40;;;;;;5094640;28;20442;-71
2022/06/14 01:28:43;;;;;;;12.67;12.17;;;23.30;60.40;;;;;;5094917;28;21025;-71
2022/06/14 01:31:12;;;;;;;11.80;11.50;;;23.30;60.50;;;;;;5094600;28;20523;-71
2022/06/14 01:33:42;;;;;;;12.20;11.80;;;23.40;60.50;;;;;;5094719;28;20534;-71
2022/06/14 01:36:14;;;;;;;11.50;11.20;;;23.30;60.50;;;;;;5094650;28;20532;-71
2022/06/14 01:38:46;;;;;;;12.50;12.00;;;23.30;60.50;;;;;;5094647;28;20444;-71
2022/06/14 01:41:27;;;;;;;12.63;12.23;;;23.30;60.60;;;;;;5094505;28;20572;-71
2022/06/14 01:44:04;;;;;;;12.60;12.30;;;23.30;60.70;;;;;;5094779;28;20523;-71
2022/06/14 01:46:37;;;;;;;13.03;12.63;;;23.30;60.70;;;;;;5093361;28;20545;-71
2022/06/14 01:52:04;;;;;;;12.57;12.20;;;23.30;61.60;;;;;;5073083;28;20758;-71
2022/06/14 01:54:41;;;;;;;13.43;13.07;;;23.30;60.80;;;;;;5094127;28;20507;-71
2022/06/14 01:57:11;;;;;;;14.07;13.67;;;23.30;60.90;;;;;;5094288;28;20499;-71
2022/06/14 01:59:47;;;;;;;12.37;11.97;;;23.30;60.90;;;;;;5094195;28;20458;-71
2022/06/14 02:02:26;;;;;;;12.40;12.00;;;23.20;60.80;;;;;;5094346;28;20488;-71
2022/06/14 02:05:01;;;;;;;13.30;12.90;;;23.20;60.90;;;;;;5093577;28;20470;-71
2022/06/14 02:07:35;;;;;;;11.80;11.50;;;23.20;60.90;;;;;;5094076;28;20438;-71
2022/06/14 02:10:10;;;;;;;11.83;11.43;;;23.20;60.90;;;;;;5093898;28;20541;-71
2022/06/14 02:12:44;;;;;;;12.70;12.40;;;23.20;60.90;;;;;;5094021;28;20448;-71
2022/06/14 02:15:19;;;;;;;13.13;12.80;;;23.20;61.00;;;;;;5093763;28;20529;-71
2022/06/14 02:17:56;;;;;;;12.43;12.13;;;23.20;60.90;;;;;;5093725;28;20470;-71
2022/06/14 02:20:28;;;;;;;14.23;13.73;;;23.20;61.00;;;;;;5093596;28;20506;-71
2022/06/14 02:23:02;;;;;;;13.90;13.50;;;23.20;61.00;;;;;;5093919;28;20477;-71
2022/06/14 02:25:35;;;;;;;13.50;13.00;;;23.20;61.10;;;;;;5093507;28;20448;-71
2022/06/14 02:28:07;;;;;;;12.60;12.30;;;23.20;61.00;;;;;;5093556;28;20894;-71
2022/06/14 02:30:43;;;;;;;13.63;13.23;;;23.20;61.00;;;;;;5093529;28;20549;-71
2022/06/14 02:33:16;;;;;;;13.47;13.07;;;23.20;61.10;;;;;;5093758;28;20482;-71
2022/06/14 02:35:49;;;;;;;13.23;12.83;;;23.20;61.10;;;;;;5093424;28;20486;-71
2022/06/14 02:38:22;;;;;;;12.90;12.57;;;23.20;61.10;;;;;;5093645;28;20912;-71
2022/06/14 02:40:56;;;;;;;12.83;12.53;;;23.20;61.20;;;;;;5093122;28;20565;-71
2022/06/14 02:43:32;;;;;;;13.03;12.63;;;23.10;61.00;;;;;;5093585;28;20478;-71
2022/06/14 02:46:02;;;;;;;14.53;13.93;;;23.20;61.10;;;;;;5093335;28;20531;-71
2022/06/14 02:48:35;;;;;;;13.53;13.23;;;23.10;61.10;;;;;;5093639;28;20508;-71
2022/06/14 02:51:07;;;;;;;14.07;13.57;;;23.10;61.10;;;;;;5093198;28;20541;-71
2022/06/14 02:53:37;;;;;;;13.27;12.97;;;23.10;61.10;;;;;;5093413;28;21035;-71
2022/06/14 02:56:09;;;;;;;14.00;13.60;;;23.10;61.10;;;;;;5093074;28;20509;-71
2022/06/14 02:58:43;;;;;;;14.40;14.00;;;23.10;61.10;;;;;;5092837;28;20447;-71
2022/06/14 03:01:16;;;;;;;13.10;12.70;;;23.10;61.10;;;;;;5093025;28;20488;-71
2022/06/14 03:03:48;;;;;;;14.00;13.60;;;23.10;61.10;;;;;;5093224;28;20474;-71
2022/06/14 03:06:25;;;;;;;14.43;14.03;;;23.10;61.10;;;;;;5092679;28;20485;-71
2022/06/14 03:08:56;;;;;;;13.80;13.40;;;23.10;61.10;;;;;;5093059;28;20818;-71
2022/06/14 03:11:34;;;;;;;14.50;14.10;;;23.10;61.10;;;;;;5092913;28;20438;-71
2022/06/14 03:14:11;;;;;;;13.87;13.47;;;23.10;61.20;;;;;;5092992;28;20544;-71
2022/06/14 03:16:46;;;;;;;14.30;13.90;;;23.10;61.20;;;;;;5092724;28;20453;-71
2022/06/14 03:19:36;;;;;;;13.47;13.07;;;23.00;61.10;;;;;;5117036;22;20564;-66
2022/06/14 03:22:13;;;;;;;14.33;13.93;;;23.10;61.30;;;;;;5080356;28;20891;-67
2022/06/14 03:24:46;;;;;;;13.97;13.57;;;23.00;61.20;;;;;;5089528;28;20534;-66
2022/06/14 03:27:23;;;;;;;15.20;14.70;;;23.10;61.30;;;;;;5072376;28;20474;-67
2022/06/14 03:29:56;;;;;;;13.87;13.47;;;23.00;61.20;;;;;;5065533;28;20474;-67
2022/06/14 03:32:31;;;;;;;14.47;13.97;;;23.00;61.30;;;;;;5052214;28;20527;-67
2022/06/14 03:35:04;;;;;;;14.67;14.17;;;23.00;61.40;;;;;;5052073;28;20440;-66
2022/06/14 03:37:33;;;;;;;14.73;14.17;;;23.00;61.40;;;;;;5052249;28;20471;-66
2022/06/14 03:40:04;;;;;;;14.00;13.60;;;23.00;61.30;;;;;;5051888;28;20569;-67
2022/06/14 03:42:34;;;;;;;14.20;13.80;;;23.00;61.30;;;;;;5051977;28;20571;-66
2022/06/14 03:45:02;;;;;;;14.37;13.97;;;23.00;61.40;;;;;;5051786;28;20527;-66
2022/06/14 03:47:31;;;;;;;13.80;13.40;;;23.00;61.40;;;;;;5052001;28;21024;-66
2022/06/14 03:50:01;;;;;;;15.67;15.17;;;22.90;62.20;;;;;;5051735;28;20550;-67
2022/06/14 03:52:56;;;;;;;14.20;13.80;;;22.90;61.50;;;;;;5051738;28;20443;-67
2022/06/14 03:55:44;;;;;;;14.33;13.93;;;22.90;61.50;;;;;;5051669;28;20452;-64
2022/06/14 03:58:25;;;;;;;14.80;14.40;;;22.90;61.30;;;;;;5051813;28;20848;-65
2022/06/14 04:00:57;;;;;;;14.90;14.50;;;22.90;61.40;;;;;;5051466;28;20878;-64
2022/06/14 04:03:47;;;;;;;15.23;14.73;;;22.90;61.30;;;;;;5051773;28;20479;-64
2022/06/14 04:06:26;;;;;;;14.90;14.50;;;22.90;61.50;;;;;;5051453;28;20444;-65
2022/06/14 04:09:02;;;;;;;15.00;14.60;;;22.90;61.60;;;;;;5051431;28;20851;-65
2022/06/14 04:11:41;;;;;;;14.77;14.37;;;22.90;61.60;;;;;;5050685;28;20443;-65
2022/06/14 04:14:20;;;;;;;14.90;14.33;;;22.90;61.70;;;;;;5051540;28;20471;-65
2022/06/14 04:16:57;;;;;;;14.90;14.50;;;22.90;61.90;;;;;;5051377;28;20526;-65
2022/06/14 04:19:39;;;;;;;14.57;14.17;;;22.90;62.00;;;;;;5051210;28;20495;-66
2022/06/14 04:22:16;;;;;;;14.77;14.37;;;22.90;62.10;;;;;;5051470;28;20490;-65
2022/06/14 04:24:50;;;;;;;15.13;14.73;;;22.90;62.20;;;;;;5051204;28;20505;-65
2022/06/14 04:27:20;;;;;;;15.47;14.97;;;22.90;61.80;;;;;;5051497;28;20486;-65
2022/06/14 04:29:57;;;;;;;16.20;15.50;;;22.90;62.20;;;;;;5051195;28;20551;-66
2022/06/14 04:32:31;;;;;;;17.93;16.63;;;22.90;63.30;;;;;;5051318;28;20478;-65
2022/06/14 04:35:05;;;;;;;21.53;19.80;;;22.90;65.90;;;;;;5051065;28;20480;-64
2022/06/14 04:37:36;;;;;;;20.43;18.70;;;22.90;68.50;;;;;;5051428;28;20476;-66
2022/06/14 04:40:08;;;;;;;20.53;19.00;;;22.90;71.60;;;;;;5049304;28;20897;-63
2022/06/14 04:42:40;;;;;;;19.47;17.83;;;23.00;74.50;;;;;;5048552;28;20479;-62
2022/06/14 04:45:14;;;;;;;18.17;16.83;;;23.00;74.70;;;;;;5050882;28;20538;-63
2022/06/14 04:47:47;;;;;;;17.43;16.00;;;23.00;76.30;;;;;;5050072;28;20495;-65
2022/06/14 04:50:18;;;;;;;20.03;18.83;;;23.00;76.10;;;;;;5031046;28;20461;-64
2022/06/14 04:52:50;;;;;;;16.00;15.20;;;23.00;74.60;;;;;;5031391;28;20441;-64
2022/06/14 04:55:21;;;;;;;18.17;16.73;;;23.00;72.60;;;;;;5031331;28;20540;-65
2022/06/14 04:57:51;;;;;;;18.73;17.53;;;23.00;71.40;;;;;;5031282;28;20599;-64
2022/06/14 05:00:22;;;;;;;16.90;16.00;;;23.00;70.50;;;;;;5030869;28;20501;-65
2022/06/14 05:02:54;;;;;;;18.77;17.53;;;23.00;70.00;;;;;;5031352;28;20484;-64
2022/06/14 05:05:26;;;;;;;18.60;17.30;;;23.00;69.50;;;;;;5031179;28;20441;-64
2022/06/14 05:07:58;;;;;;;18.47;17.20;;;23.00;68.90;;;;;;5031340;28;20480;-64
2022/06/14 05:10:31;;;;;;;17.33;16.07;;;22.90;68.40;;;;;;5030895;28;20828;-64
2022/06/14 05:13:02;;;;;;;16.60;15.80;;;22.90;68.20;;;;;;5031239;28;20445;-64
2022/06/14 05:15:36;;;;;;;16.70;15.67;;;22.90;67.80;;;;;;5031214;28;20473;-64
2022/06/14 05:18:07;;;;;;;17.97;17.10;;;22.90;67.60;;;;;;5031020;28;20481;-65
2022/06/14 05:20:38;;;;;;;16.83;16.03;;;22.90;67.30;;;;;;5030664;28;20536;-64
2022/06/14 05:23:11;;;;;;;16.70;15.93;;;22.90;67.10;;;;;;5033475;28;20543;-64
2022/06/14 05:25:49;;;;;;;15.87;15.20;;;22.90;66.80;;;;;;5034821;28;20441;-64
2022/06/14 05:28:24;;;;;;;16.80;16.27;;;22.90;66.70;;;;;;5034729;28;20514;-65
2022/06/14 05:30:56;;;;;;;16.87;16.00;;;22.90;67.30;;;;;;5034380;28;20543;-65
2022/06/14 05:33:32;;;;;;;17.00;16.23;;;22.90;66.50;;;;;;5034631;28;20480;-64
2022/06/14 05:36:05;;;;;;;16.87;16.27;;;22.90;66.30;;;;;;5034613;28;20476;-66
2022/06/14 05:38:41;;;;;;;16.93;16.33;;;22.90;66.10;;;;;;5034494;28;20444;-65
2022/06/14 05:41:12;;;;;;;17.43;16.27;;;22.90;65.90;;;;;;5034184;28;20460;-64
2022/06/14 05:43:44;;;;;;;16.07;15.53;;;22.90;65.90;;;;;;5034349;28;20486;-65
2022/06/14 05:46:21;;;;;;;16.33;15.63;;;22.90;65.80;;;;;;5034307;28;20878;-65
2022/06/14 05:48:52;;;;;;;17.50;16.80;;;22.90;65.60;;;;;;5034320;28;21019;-65
2022/06/14 05:51:21;;;;;;;16.53;15.83;;;22.90;65.50;;;;;;5033997;28;20548;-64
2022/06/14 05:53:55;;;;;;;16.87;16.27;;;22.90;65.50;;;;;;5034172;28;20553;-65
2022/06/14 05:56:31;;;;;;;17.73;16.93;;;22.90;65.30;;;;;;5034191;28;20473;-64
2022/06/14 05:59:05;;;;;;;17.17;16.50;;;22.80;66.10;;;;;;5034121;28;20445;-66
2022/06/14 06:01:39;;;;;;;15.67;15.17;;;22.80;65.80;;;;;;5033801;28;20947;-65
2022/06/14 06:04:12;;;;;;;16.50;15.90;;;22.90;65.00;;;;;;5033927;28;20473;-65
2022/06/14 06:06:44;;;;;;;16.73;16.00;;;22.80;64.90;;;;;;5034022;28;20805;-64
2022/06/14 06:09:18;;;;;;;15.80;15.30;;;22.80;65.60;;;;;;5033866;28;20485;-65
2022/06/14 06:11:49;;;;;;;17.17;16.50;;;22.80;64.70;;;;;;5033685;28;20525;-64
2022/06/14 06:14:20;;;;;;;16.00;15.30;;;22.80;64.60;;;;;;5033931;28;20869;-65
2022/06/14 06:16:55;;;;;;;17.80;17.20;;;22.80;64.70;;;;;;5033718;28;20441;-65
2022/06/14 06:19:25;;;;;;;16.00;15.50;;;22.90;64.70;;;;;;5033433;28;20441;-65
2022/06/14 06:21:57;;;;;;;16.67;15.97;;;22.80;64.60;;;;;;5033519;28;20487;-65
2022/06/14 06:24:33;;;;;;;16.23;15.63;;;22.80;64.50;;;;;;5033598;28;20528;-65
2022/06/14 06:27:03;;;;;;;16.07;15.53;;;22.80;64.50;;;;;;5033752;28;20535;-65
2022/06/14 06:29:40;;;;;;;15.30;14.80;;;22.80;64.40;;;;;;5033340;28;20496;-65
2022/06/14 06:32:10;;;;;;;15.73;15.23;;;22.80;64.50;;;;;;5033386;28;20967;-65
2022/06/14 06:34:37;;;;;;;16.10;15.50;;;22.80;64.30;;;;;;5032981;28;20441;-65
2022/06/14 06:37:10;;;;;;;17.40;16.70;;;22.80;64.30;;;;;;5033482;28;20535;-65
2022/06/14 06:39:44;;;;;;;16.93;16.33;;;22.80;64.40;;;;;;5033254;28;20901;-65
2022/06/14 06:42:18;;;;;;;16.37;15.63;;;22.80;64.30;;;;;;5033271;28;20646;-65
2022/06/14 06:44:54;;;;;;;15.90;15.20;;;22.80;64.40;;;;;;5033279;28;20480;-65
2022/06/14 06:47:28;;;;;;;16.13;15.53;;;22.80;65.10;;;;;;5033267;28;20445;-65
2022/06/14 06:50:08;;;;;;;15.97;15.37;;;22.80;64.50;;;;;;5032951;28;20465;-65
2022/06/14 06:52:43;;;;;;;15.20;14.70;;;22.80;64.40;;;;;;5032978;28;20437;-65
2022/06/14 06:55:16;;;;;;;15.73;14.93;;;22.80;64.50;;;;;;5033049;28;20447;-65
2022/06/14 06:57:46;;;;;;;16.20;15.60;;;22.80;64.60;;;;;;5032979;28;20456;-64
2022/06/14 07:00:18;;;;;;;14.97;14.37;;;22.80;64.60;;;;;;5032760;28;20880;-66
2022/06/14 07:02:49;;;;;;;16.50;15.90;;;22.80;64.50;;;;;;5032782;28;20477;-66
2022/06/14 07:05:18;;;;;;;15.07;14.67;;;22.80;64.40;;;;;;5032923;28;20456;-66
2022/06/14 07:07:52;;;;;;;15.23;14.80;;;22.80;64.20;;;;;;5032808;28;20445;-66
2022/06/14 07:10:29;;;;;;;15.43;14.97;;;22.70;64.00;;;;;;5032611;28;20902;-66
2022/06/14 07:13:01;;;;;;;15.90;15.40;;;22.80;64.30;;;;;;5032820;28;20483;-67
2022/06/14 07:15:34;;;;;;;15.23;14.73;;;22.70;64.00;;;;;;5032847;28;20848;-67
2022/06/14 07:18:11;;;;;;;16.00;15.50;;;22.70;64.00;;;;;;5032657;28;20516;-66
2022/06/14 07:20:48;;;;;;;16.70;16.10;;;22.80;64.00;;;;;;5032153;28;20511;-66
2022/06/14 07:23:22;;;;;;;15.20;14.80;;;22.80;64.10;;;;;;5032492;28;20538;-67
2022/06/14 07:25:58;;;;;;;15.57;14.97;;;22.70;63.90;;;;;;5032509;28;20488;-66
2022/06/14 07:28:32;;;;;;;15.80;15.30;;;22.80;64.10;;;;;;5032690;28;20440;-67
2022/06/14 07:31:03;;;;;;;16.67;16.07;;;22.70;64.00;;;;;;5032143;28;20468;-66
2022/06/14 07:33:32;;;;;;;15.20;14.70;;;22.70;64.10;;;;;;5032300;28;20532;-66
2022/06/14 07:36:02;;;;;;;15.67;15.17;;;22.70;64.20;;;;;;5032442;28;20537;-66
2022/06/14 07:38:36;;;;;;;15.87;15.27;;;22.70;64.30;;;;;;5032159;28;20453;-67
2022/06/14 07:41:11;;;;;;;15.77;15.27;;;22.80;64.30;;;;;;5031963;28;20495;-67
2022/06/14 07:43:46;;;;;;;15.87;15.17;;;22.80;64.10;;;;;;5032123;28;20483;-67
2022/06/14 07:46:19;;;;;;;15.80;15.23;;;22.70;64.00;;;;;;5032061;28;20494;-66
2022/06/14 07:48:52;;;;;;;16.50;15.90;;;22.80;64.10;;;;;;5032088;28;20480;-66
2022/06/14 07:51:26;;;;;;;16.20;15.70;;;22.80;65.00;;;;;;5031803;28;20544;-67
2022/06/14 07:54:00;;;;;;;16.43;15.83;;;22.70;63.90;;;;;;5031961;28;20533;-67
2022/06/14 07:56:34;;;;;;;16.33;15.73;;;22.70;63.90;;;;;;5031912;28;20959;-66
2022/06/14 07:59:06;;;;;;;16.03;15.53;;;22.80;64.00;;;;;;5031929;28;20448;-67
2022/06/14 08:01:38;;;;;;;16.37;15.80;;;22.70;64.70;;;;;;5031645;28;20538;-67
2022/06/14 08:04:13;;;;;;;16.03;15.53;;;22.70;63.50;;;;;;5031705;28;20485;-67
2022/06/14 08:06:43;;;;;;;15.43;14.93;;;22.70;64.00;;;;;;5031786;28;20951;-67
2022/06/14 08:09:15;;;;;;;15.63;15.10;;;22.70;63.30;;;;;;5031701;28;20954;-66
2022/06/14 08:11:49;;;;;;;16.60;15.90;;;22.70;63.30;;;;;;5031513;28;20548;-66
2022/06/14 08:14:20;;;;;;;15.23;14.73;;;22.70;63.30;;;;;;5031680;28;20469;-66
2022/06/14 08:16:52;;;;;;;16.93;16.33;;;22.70;63.10;;;;;;5031435;28;20445;-66
2022/06/14 08:19:23;;;;;;;16.10;15.60;;;22.70;62.70;;;;;;5031437;28;20449;-66
2022/06/14 08:21:54;;;;;;;15.60;15.00;;;22.70;62.80;;;;;;5031508;28;20482;-67
2022/06/14 08:24:23;;;;;;;17.17;16.37;;;22.70;62.60;;;;;;5031531;28;20473;-66
2022/06/14 08:26:56;;;;;;;16.13;15.63;;;22.70;62.40;;;;;;5031571;28;20531;-66
2022/06/14 08:29:29;;;;;;;16.30;15.50;;;22.70;62.50;;;;;;5031408;28;20469;-66
2022/06/14 08:32:00;;;;;;;15.40;14.90;;;22.70;62.30;;;;;;5031410;28;20437;-66
2022/06/14 08:34:34;;;;;;;17.07;16.20;;;22.60;62.10;;;;;;5031389;28;20483;-66
2022/06/14 08:37:07;;;;;;;16.40;15.80;;;22.60;61.70;;;;;;5031453;28;20540;-66
2022/06/14 08:39:38;;;;;;;16.43;15.93;;;22.60;61.60;;;;;;5031196;28;21007;-66
2022/06/14 08:42:14;;;;;;;15.57;15.07;;;22.60;61.20;;;;;;5031443;28;20441;-66
2022/06/14 08:44:48;;;;;;;16.00;15.50;;;22.60;61.30;;;;;;5031249;28;20524;-66
2022/06/14 08:47:39;;;;;;;16.10;15.43;;;22.60;61.30;;;;;;5031353;28;20524;-66
2022/06/14 08:50:34;;;;;;;17.17;16.57;;;22.60;60.90;;;;;;5031025;28;21057;-67
2022/06/14 08:53:31;;;;;;;15.67;15.17;;;22.50;60.20;;;;;;5031434;28;20889;-66
2022/06/14 08:56:33;;;;;;;16.50;15.87;;;22.50;60.40;;;;;;5031389;28;20473;-66
2022/06/14 08:59:32;;;;;;;16.50;15.90;;;22.50;60.00;;;;;;5035420;28;20904;-66
2022/06/14 09:02:23;;;;;;;16.50;16.00;;;22.50;59.80;;;;;;5035174;28;20476;-66
2022/06/14 09:05:29;;;;;;;16.90;16.40;;;22.50;60.00;;;;;;4997171;28;20551;-66
2022/06/14 09:08:26;;;;;;;16.87;16.27;;;22.50;59.90;;;;;;5012066;28;20504;-66
2022/06/14 09:11:15;;;;;;;15.53;15.03;;;22.50;60.00;;;;;;5031692;28;20836;-66
2022/06/14 09:14:04;;;;;;;15.67;15.10;;;22.50;59.80;;;;;;5034947;28;20532;-66
2022/06/14 09:17:01;;;;;;;16.13;15.43;;;22.50;59.80;;;;;;5034993;28;20524;-66
2022/06/14 09:19:41;;;;;;;16.17;15.67;;;22.50;59.70;;;;;;5034661;28;20479;-68
2022/06/14 09:22:19;;;;;;;16.10;15.60;;;22.50;59.70;;;;;;5034737;28;20536;-66
2022/06/14 09:24:57;;;;;;;16.70;16.00;;;22.50;59.80;;;;;;5034578;28;21015;-66
2022/06/14 09:27:57;;;;;;;17.50;16.87;;;22.50;59.90;;;;;;5034649;28;20527;-68
2022/06/14 09:30:46;;;;;;;16.63;16.13;;;22.50;59.30;;;;;;5034336;28;20471;-66
2022/06/14 09:33:40;;;;;;;16.63;16.13;;;22.50;59.20;;;;;;5034724;28;20518;-66
2022/06/14 09:36:25;;;;;;;16.50;15.93;;;22.50;59.40;;;;;;5034555;28;20449;-66
2022/06/14 09:39:15;;;;;;;16.27;15.67;;;22.40;58.80;;;;;;5034559;28;20487;-66
2022/06/14 09:42:09;;;;;;;15.80;15.10;;;22.50;58.90;;;;;;5034211;28;20455;-66
2022/06/14 09:45:30;;;;;;;16.53;15.90;;;22.50;59.00;;;;;;5034340;28;20567;-66
2022/06/14 09:48:22;;;;;;;16.47;15.80;;;22.50;59.00;;;;;;5034411;28;20817;-67
2022/06/14 09:51:51;;;;;;;16.00;15.30;;;22.50;59.10;;;;;;5034065;28;20495;-66
2022/06/14 09:54:42;;;;;;;16.87;16.17;;;22.50;58.90;;;;;;4953808;29;20455;-66
2022/06/14 09:57:33;;;;;;;16.07;15.57;;;22.50;59.10;;;;;;5028199;28;20920;-66
2022/06/14 10:00:37;;;;;;;17.20;16.70;;;22.50;58.70;;;;;;4997898;28;20717;-66
2022/06/14 10:03:45;;;;;;;17.07;16.57;;;22.40;58.30;;;;;;4992985;28;20485;-65
2022/06/14 10:06:37;;;;;;;17.17;16.57;;;22.50;58.70;;;;;;5033949;28;20480;-66
2022/06/14 10:09:19;;;;;;;16.20;15.47;;;22.40;58.60;;;;;;5032728;28;20445;-66
2022/06/14 10:12:04;;;;;;;16.90;16.30;;;22.50;58.70;;;;;;5033644;28;20433;-67
2022/06/14 10:14:45;;;;;;;16.57;16.00;;;22.50;58.70;;;;;;5033761;28;20459;-66
2022/06/14 10:17:36;;;;;;;15.90;15.40;;;22.50;58.50;;;;;;5033785;28;20480;-66
2022/06/14 10:20:23;;;;;;;16.63;16.13;;;22.50;58.60;;;;;;5033359;28;20508;-67
2022/06/14 10:23:01;;;;;;;16.30;15.80;;;22.50;58.90;;;;;;5033509;28;20492;-66
2022/06/14 10:25:36;;;;;;;17.17;16.57;;;22.50;58.50;;;;;;5033595;28;20522;-66
2022/06/14 10:28:11;;;;;;;17.57;16.80;;;22.50;58.50;;;;;;5033551;28;20548;-66
2022/06/14 10:30:52;;;;;;;16.93;16.10;;;22.50;58.50;;;;;;5033329;28;20560;-65
2022/06/14 10:33:35;;;;;;;16.70;16.20;;;22.60;58.50;;;;;;5033561;28;20445;-66
2022/06/14 10:36:16;;;;;;;16.50;16.00;;;22.60;58.60;;;;;;5033456;28;20445;-67
2022/06/14 10:39:13;;;;;;;15.97;15.47;;;22.50;58.70;;;;;;5033394;28;20492;-66
2022/06/14 10:41:46;;;;;;;16.63;16.07;;;22.60;58.80;;;;;;5029716;28;20480;-66
2022/06/14 10:44:21;;;;;;;16.80;16.30;;;22.60;58.90;;;;;;5033313;28;20840;-66
2022/06/14 10:46:56;;;;;;;16.97;16.47;;;22.60;59.00;;;;;;5033237;28;20476;-65
2022/06/14 10:49:55;;;;;;;16.93;16.33;;;22.60;59.10;;;;;;5033088;28;20865;-66
2022/06/14 10:52:37;;;;;;;17.10;16.50;;;22.60;59.10;;;;;;5016490;28;20892;-67
2022/06/14 10:55:23;;;;;;;16.90;16.30;;;22.60;59.20;;;;;;5033147;28;20449;-66
2022/06/14 10:58:06;;;;;;;17.33;16.73;;;22.60;59.90;;;;;;5033003;28;20464;-67
2022/06/14 11:00:42;;;;;;;16.70;16.20;;;22.60;59.20;;;;;;5032733;28;20559;-66
2022/06/14 11:03:24;;;;;;;16.37;15.83;;;22.60;59.20;;;;;;5032963;28;20444;-66
2022/06/14 11:06:11;;;;;;;16.40;15.90;;;22.60;59.30;;;;;;5032795;28;20527;-66
2022/06/14 11:08:50;;;;;;;16.10;15.60;;;22.60;59.30;;;;;;5032901;28;20553;-67
2022/06/14 11:11:39;;;;;;;16.43;15.93;;;22.60;59.40;;;;;;5032460;28;20499;-66
2022/06/14 11:14:15;;;;;;;17.43;16.83;;;22.60;59.40;;;;;;5032700;28;20532;-66
2022/06/14 11:16:54;;;;;;;16.67;16.07;;;22.70;59.50;;;;;;5032735;28;20469;-66
2022/06/14 11:19:50;;;;;;;16.50;16.00;;;22.70;59.50;;;;;;5032257;28;20926;-67
2022/06/14 11:22:36;;;;;;;17.80;17.20;;;22.60;58.40;;;;;;5015824;28;20488;-66
2022/06/14 11:25:15;;;;;;;17.73;17.13;;;22.60;58.20;;;;;;5032405;28;20511;-66
2022/06/14 11:27:52;;;;;;;18.00;17.20;;;22.60;58.30;;;;;;5032454;28;20453;-66
2022/06/14 11:30:25;;;;;;;18.20;17.60;;;22.60;58.40;;;;;;5032280;28;21064;-67
2022/06/14 11:33:00;;;;;;;18.37;17.70;;;22.60;58.10;;;;;;5032377;28;20449;-66
2022/06/14 11:35:48;;;;;;;17.90;17.20;;;22.60;57.40;;;;;;5032352;28;20476;-67
2022/06/14 11:38:36;;;;;;;18.00;17.30;;;22.70;57.60;;;;;;5032276;28;20449;-66
2022/06/14 11:41:06;;;;;;;17.90;17.30;;;22.70;57.70;;;;;;5031925;28;20548;-66
2022/06/14 11:43:47;;;;;;;17.50;16.67;;;22.70;58.00;;;;;;5032080;28;20851;-66
2022/06/14 11:46:22;;;;;;;18.20;17.50;;;22.70;57.90;;;;;;5032181;28;20477;-66
2022/06/14 11:48:57;;;;;;;18.80;17.90;;;22.70;57.60;;;;;;5032118;28;20476;-66
2022/06/14 11:51:48;;;;;;;19.57;18.73;;;22.70;57.60;;;;;;5031767;28;20991;-66
2022/06/14 11:54:24;;;;;;;17.40;16.70;;;22.70;57.80;;;;;;5032100;28;20495;-67
2022/06/14 11:57:02;;;;;;;18.13;17.20;;;22.80;58.10;;;;;;5031985;28;20452;-66
2022/06/14 12:00:18;;;;;;;17.60;17.00;;;22.80;58.80;;;;;;5031881;28;20492;-66
2022/06/14 12:02:57;;;;;;;17.50;16.63;;;22.80;58.10;;;;;;4970773;28;20448;-66
2022/06/14 12:05:36;;;;;;;18.07;17.00;;;22.80;58.20;;;;;;5022719;28;20488;-66
2022/06/14 12:08:11;;;;;;;18.67;17.87;;;22.80;58.80;;;;;;5031731;28;20464;-66
2022/06/14 12:11:01;;;;;;;18.57;17.97;;;22.80;58.30;;;;;;5031490;28;20461;-65
2022/06/14 12:14:00;;;;;;;17.40;16.80;;;22.80;58.40;;;;;;5031777;28;20496;-67
2022/06/14 12:16:36;;;;;;;16.83;16.23;;;22.80;58.50;;;;;;5031691;28;20445;-66
2022/06/14 12:19:08;;;;;;;19.03;18.33;;;22.80;58.50;;;;;;5031639;28;20492;-66
2022/06/14 12:21:45;;;;;;;16.80;16.30;;;22.80;58.50;;;;;;5031202;28;20813;-66
2022/06/14 12:24:17;;;;;;;17.10;16.50;;;22.80;58.60;;;;;;5031495;28;20518;-66
2022/06/14 12:26:52;;;;;;;16.10;15.70;;;22.90;58.50;;;;;;5031671;28;20445;-66
2022/06/14 12:29:22;;;;;;;18.17;17.57;;;22.90;58.60;;;;;;5031486;28;20444;-67
2022/06/14 12:32:03;;;;;;;18.10;17.23;;;22.90;58.60;;;;;;5030800;28;20545;-66
2022/06/14 12:34:35;;;;;;;17.03;16.43;;;22.90;58.60;;;;;;5031510;28;20451;-66
2022/06/14 12:37:15;;;;;;;17.10;16.40;;;22.90;59.10;;;;;;5031534;28;20488;-66
2022/06/14 12:39:47;;;;;;;17.47;16.60;;;23.00;58.70;;;;;;5031310;28;20468;-65
2022/06/14 12:42:22;;;;;;;17.60;17.00;;;23.00;58.80;;;;;;5031415;28;20536;-66
2022/06/14 12:44:55;;;;;;;17.13;16.63;;;22.90;58.90;;;;;;5031355;28;20574;-66
2022/06/14 12:47:28;;;;;;;17.20;16.60;;;23.00;59.50;;;;;;5031502;28;20527;-66
2022/06/14 12:50:05;;;;;;;17.10;16.50;;;23.00;59.60;;;;;;5031133;28;20493;-67
2022/06/14 12:52:38;;;;;;;17.53;16.93;;;23.00;58.90;;;;;;5031265;28;20871;-67
2022/06/14 12:55:16;;;;;;;17.10;16.60;;;23.00;58.80;;;;;;5031233;28;20595;-66
2022/06/14 12:58:03;;;;;;;16.90;16.40;;;23.00;58.80;;;;;;5031418;28;20803;-66
2022/06/14 13:00:36;;;;;;;18.47;17.87;;;23.00;58.90;;;;;;5030963;28;20522;-66
2022/06/14 13:03:16;;;;;;;17.93;17.23;;;23.10;58.90;;;;;;5031258;28;20469;-66
2022/06/14 13:05:46;;;;;;;17.50;16.90;;;23.10;59.00;;;;;;5031162;28;20576;-66
2022/06/14 13:08:26;;;;;;;18.27;17.50;;;23.10;59.10;;;;;;5031113;28;21027;-66
2022/06/14 13:10:59;;;;;;;17.10;16.40;;;23.10;59.10;;;;;;5030688;28;20500;-65
2022/06/14 13:13:45;;;;;;;17.40;16.70;;;23.10;59.00;;;;;;5031204;28;20479;-66
2022/06/14 13:16:22;;;;;;;17.10;16.50;;;23.10;58.90;;;;;;5031112;28;20480;-66
2022/06/14 13:19:00;;;;;;;17.27;16.67;;;23.10;58.90;;;;;;5031003;28;20472;-66
2022/06/14 13:21:36;;;;;;;17.40;16.80;;;23.20;59.00;;;;;;5030615;28;20486;-67